createdAt,value
2023-04-29T00:02:33.913Z,3.37
2023-04-29T00:05:19.725Z,3.03
2023-04-29T00:08:05.936Z,3.30
2023-04-29T00:10:51.451Z,3.40
2023-04-29T00:13:36.898Z,3.10
2023-04-29T00:16:22.171Z,2.90
2023-04-29T00:19:07.480Z,3.20
2023-04-29T00:21:54.691Z,3.03
2023-04-29T00:24:40.366Z,3.00
2023-04-29T00:27:25.549Z,3.20
2023-04-29T00:30:15.726Z,2.87
2023-04-29T00:33:01.151Z,3.20
2023-04-29T00:35:47.075Z,3.13
2023-04-29T00:38:32.751Z,2.87
2023-04-29T00:41:17.910Z,2.87
2023-04-29T00:44:03.352Z,3.07
2023-04-29T00:46:48.736Z,2.70
2023-04-29T00:49:35.842Z,2.70
2023-04-29T00:52:23.036Z,2.77
2023-04-29T00:55:09.120Z,2.43
2023-04-29T00:57:54.850Z,2.83
2023-04-29T01:00:41.772Z,2.57
2023-04-29T01:03:29.116Z,2.57
2023-04-29T01:06:21.567Z,2.57
2023-04-29T01:09:47.279Z,2.10
2023-04-29T01:12:37.110Z,2.50
2023-04-29T01:16:01.156Z,2.13
2023-04-29T01:18:54.154Z,2.40
2023-04-29T01:21:50.909Z,2.27
2023-04-29T01:27:38.451Z,2.43
2023-04-29T01:30:47.691Z,2.30
2023-04-29T01:33:40.428Z,2.43
2023-04-29T01:37:03.118Z,2.53
2023-04-29T01:40:06.653Z,2.40
2023-04-29T01:43:09.574Z,2.30
2023-04-29T01:45:57.925Z,2.33
2023-04-29T01:48:43.565Z,2.40
2023-04-29T01:51:29.803Z,2.13
2023-04-29T01:54:15.939Z,2.60
2023-04-29T01:57:03.170Z,2.30
2023-04-29T01:59:57.363Z,2.40
2023-04-29T02:03:09.633Z,2.43
2023-04-29T02:06:01.366Z,2.50
2023-04-29T02:08:49.081Z,2.20
2023-04-29T02:11:35.790Z,2.80
2023-04-29T02:14:21.233Z,2.20
2023-04-29T02:17:06.692Z,2.20
2023-04-29T02:19:55.097Z,2.47
2023-04-29T02:22:41.062Z,1.93
2023-04-29T02:25:26.340Z,2.60
2023-04-29T02:28:12.150Z,2.20
2023-04-29T02:30:59.142Z,2.20
2023-04-29T02:33:44.327Z,2.40
2023-04-29T02:36:29.851Z,2.30
2023-04-29T02:39:15.230Z,2.20
2023-04-29T02:42:00.439Z,2.53
2023-04-29T02:44:45.763Z,1.97
2023-04-29T02:47:30.942Z,2.13
2023-04-29T02:50:16.373Z,2.67
2023-04-29T02:53:02.279Z,2.57
2023-04-29T02:55:48.487Z,2.93
2023-04-29T02:58:34.133Z,3.23
2023-04-29T03:01:19.465Z,2.83
2023-04-29T03:04:05.708Z,2.70
2023-04-29T03:06:51.578Z,2.70
2023-04-29T03:09:36.928Z,2.43
2023-04-29T03:12:22.762Z,2.43
2023-04-29T03:15:10.549Z,2.30
2023-04-29T03:17:56.345Z,2.43
2023-04-29T03:20:42.180Z,2.20
2023-04-29T03:23:28.081Z,2.40
2023-04-29T03:26:13.957Z,2.10
2023-04-29T03:28:59.563Z,2.27
2023-04-29T03:31:46.339Z,2.10
2023-04-29T03:34:32.443Z,2.10
2023-04-29T03:37:39.420Z,2.27
2023-04-29T03:40:42.965Z,1.80
2023-04-29T03:43:28.407Z,2.10
2023-04-29T03:46:13.778Z,1.97
2023-04-29T03:48:59.400Z,2.13
2023-04-29T03:51:47.669Z,2.20
2023-04-29T03:54:34.979Z,1.87
2023-04-29T03:57:20.897Z,1.97
2023-04-29T04:00:07.911Z,2.00
2023-04-29T04:03:00.340Z,1.77
2023-04-29T04:05:47.136Z,2.00
2023-04-29T04:08:34.560Z,2.00
2023-04-29T04:11:27.381Z,1.60
2023-04-29T04:14:19.056Z,1.87
2023-04-29T04:17:05.462Z,1.57
2023-04-29T04:19:51.736Z,1.60
2023-04-29T04:22:38.255Z,1.80
2023-04-29T04:25:33.994Z,1.60
2023-04-29T04:28:35.154Z,1.70
2023-04-29T04:31:25.907Z,1.50
2023-04-29T04:34:12.063Z,1.70
2023-04-29T04:36:57.584Z,1.50
2023-04-29T04:39:43.006Z,1.80
2023-04-29T04:42:31.642Z,1.90
2023-04-29T04:45:18.992Z,2.20
2023-04-29T04:48:08.810Z,2.17
2023-04-29T04:50:57.871Z,1.80
2023-04-29T04:53:44.727Z,1.63
2023-04-29T04:56:41.625Z,1.80
2023-04-29T04:59:27.579Z,1.63
2023-04-29T05:02:12.982Z,1.83
2023-04-29T05:04:59.270Z,1.40
2023-04-29T05:07:48.272Z,1.50
2023-04-29T05:10:37.614Z,1.83
2023-04-29T05:13:25.847Z,1.80
2023-04-29T05:16:12.880Z,1.73
2023-04-29T05:19:04.846Z,1.60
2023-04-29T05:21:55.518Z,1.63
2023-04-29T05:24:42.182Z,1.70
2023-04-29T05:27:27.385Z,2.10
2023-04-29T05:30:15.298Z,1.90
2023-04-29T05:33:01.835Z,1.50
2023-04-29T05:35:48.054Z,1.90
2023-04-29T05:38:33.454Z,1.80
2023-04-29T05:41:28.603Z,4.03
2023-04-29T05:44:14.685Z,5.73
2023-04-29T05:47:00.595Z,5.93
2023-04-29T05:49:46.789Z,4.20
2023-04-29T05:52:32.599Z,3.63
2023-04-29T05:55:17.987Z,3.53
2023-04-29T05:58:03.529Z,3.87
2023-04-29T06:00:49.717Z,3.97
2023-04-29T06:03:40.249Z,4.57
2023-04-29T06:06:45.938Z,4.03
2023-04-29T06:09:36.914Z,6.70
2023-04-29T06:12:22.398Z,7.00
2023-04-29T06:15:08.054Z,6.30
2023-04-29T06:17:53.629Z,5.70
2023-04-29T06:20:40.967Z,6.50
2023-04-29T06:23:26.591Z,6.37
2023-04-29T06:26:13.365Z,6.40
2023-04-29T06:28:59.122Z,5.60
2023-04-29T06:31:45.084Z,6.13
2023-04-29T06:34:31.041Z,5.93
2023-04-29T06:37:38.098Z,5.73
2023-04-29T06:40:47.624Z,4.27
2023-04-29T06:43:33.331Z,4.43
2023-04-29T06:46:30.976Z,3.87
2023-04-29T06:49:22.427Z,3.50
2023-04-29T06:52:08.129Z,3.70
2023-04-29T06:54:53.520Z,3.27
2023-04-29T06:57:39.027Z,3.30
2023-04-29T07:00:24.827Z,3.40
2023-04-29T07:03:13.729Z,3.20
2023-04-29T07:05:59.101Z,3.20
2023-04-29T07:08:45.036Z,2.90
2023-04-29T07:11:31.473Z,3.10
2023-04-29T07:14:16.706Z,3.00
2023-04-29T07:17:02.418Z,2.87
2023-04-29T07:19:48.655Z,2.57
2023-04-29T07:22:34.151Z,2.80
2023-04-29T07:25:19.793Z,3.57
2023-04-29T07:28:06.514Z,4.10
2023-04-29T07:30:52.823Z,5.53
2023-04-29T07:33:38.845Z,4.83
2023-04-29T07:36:24.076Z,4.40
2023-04-29T07:39:09.451Z,4.13
2023-04-29T07:41:55.996Z,4.47
2023-04-29T07:44:41.699Z,5.13
2023-04-29T07:47:27.255Z,4.53
2023-04-29T07:50:13.609Z,4.17
2023-04-29T07:53:00.618Z,4.07
2023-04-29T07:55:47.235Z,3.83
2023-04-29T07:58:33.097Z,3.97
2023-04-29T08:01:19.114Z,3.50
2023-04-29T08:04:05.427Z,3.83
2023-04-29T08:06:55.444Z,4.80
2023-04-29T08:09:40.655Z,4.43
2023-04-29T08:12:28.497Z,3.70
2023-04-29T08:15:13.998Z,3.80
2023-04-29T08:17:59.732Z,3.60
2023-04-29T08:20:48.301Z,3.93
2023-04-29T08:23:34.188Z,4.00
2023-04-29T08:26:22.589Z,3.63
2023-04-29T08:29:09.435Z,3.90
2023-04-29T08:31:55.703Z,3.57
2023-04-29T08:34:41.973Z,3.70
2023-04-29T08:37:27.830Z,3.60
2023-04-29T08:40:13.921Z,3.77
2023-04-29T08:43:00.298Z,3.70
2023-04-29T08:45:48.659Z,3.30
2023-04-29T08:48:37.331Z,3.33
2023-04-29T08:51:23.039Z,3.50
2023-04-29T08:54:08.558Z,3.17
2023-04-29T08:56:55.720Z,3.07
2023-04-29T08:59:41.679Z,3.80
2023-04-29T09:02:28.102Z,3.57
2023-04-29T09:05:14.033Z,3.27
2023-04-29T09:08:04.276Z,2.77
2023-04-29T09:10:53.777Z,3.80
2023-04-29T09:13:39.640Z,3.57
2023-04-29T09:16:24.901Z,3.20
2023-04-29T09:19:10.252Z,3.10
2023-04-29T09:21:58.250Z,3.03
2023-04-29T09:24:48.097Z,3.20
2023-04-29T09:27:35.107Z,3.20
2023-04-29T09:30:21.367Z,2.90
2023-04-29T09:33:09.275Z,3.37
2023-04-29T09:35:55.375Z,2.40
2023-04-29T09:38:56.150Z,3.27
2023-04-29T09:41:42.626Z,2.93
2023-04-29T09:44:36.010Z,2.83
2023-04-29T09:47:31.420Z,2.97
2023-04-29T09:50:19.588Z,2.90
2023-04-29T09:53:08.913Z,2.93
2023-04-29T09:55:54.215Z,2.97
2023-04-29T09:58:40.241Z,2.43
2023-04-29T10:01:27.619Z,2.73
2023-04-29T10:04:15.601Z,2.83
2023-04-29T10:07:02.672Z,3.03
2023-04-29T10:09:48.832Z,2.90
2023-04-29T10:12:38.864Z,2.60
2023-04-29T10:15:40.105Z,2.80
2023-04-29T10:18:49.320Z,2.83
2023-04-29T10:21:35.048Z,2.53
2023-04-29T10:24:22.575Z,2.87
2023-04-29T10:27:12.367Z,2.73
2023-04-29T10:30:00.885Z,5.97
2023-04-29T10:32:51.505Z,22.03
2023-04-29T10:35:38.019Z,23.90
2023-04-29T10:38:29.579Z,54.57
2023-04-29T10:41:20.946Z,101.57
2023-04-29T10:44:06.245Z,31.83
2023-04-29T10:47:21.592Z,32.50
2023-04-29T10:50:07.624Z,38.90
2023-04-29T10:52:53.027Z,62.33
2023-04-29T10:55:39.026Z,64.47
2023-04-29T10:58:37.810Z,55.90
2023-04-29T11:01:41.600Z,56.10
2023-04-29T11:04:27.529Z,56.07
2023-04-29T11:07:28.204Z,57.93
2023-04-29T11:10:14.005Z,65.47
2023-04-29T11:13:25.077Z,67.23
2023-04-29T11:16:11.586Z,67.23
2023-04-29T11:19:11.024Z,63.20
2023-04-29T11:22:30.164Z,63.87
2023-04-29T11:25:16.039Z,53.67
2023-04-29T11:28:02.187Z,52.33
2023-04-29T11:30:50.308Z,49.87
2023-04-29T11:33:35.954Z,47.17
2023-04-29T11:36:21.429Z,47.60
2023-04-29T11:39:08.179Z,42.67
2023-04-29T11:42:03.884Z,42.00
2023-04-29T11:44:53.433Z,40.50
2023-04-29T11:47:45.081Z,40.03
2023-04-29T11:50:32.794Z,40.07
2023-04-29T11:53:25.221Z,38.77
2023-04-29T11:56:11.696Z,41.10
2023-04-29T11:58:58.811Z,39.37
2023-04-29T12:01:44.477Z,38.07
2023-04-29T12:04:30.072Z,38.30
2023-04-29T12:07:16.959Z,38.60
2023-04-29T12:10:02.259Z,39.47
2023-04-29T12:12:48.418Z,40.37
2023-04-29T12:15:33.934Z,37.90
2023-04-29T12:18:20.040Z,37.90
2023-04-29T12:21:06.696Z,36.97
2023-04-29T12:23:52.645Z,35.63
2023-04-29T12:26:40.338Z,43.87
2023-04-29T12:29:26.669Z,42.20
2023-04-29T12:32:22.138Z,41.37
2023-04-29T12:35:16.862Z,42.70
2023-04-29T12:38:02.835Z,42.47
2023-04-29T12:40:49.591Z,42.87
2023-04-29T12:43:36.488Z,41.17
2023-04-29T12:46:23.690Z,39.63
2023-04-29T12:49:10.129Z,38.13
2023-04-29T12:51:55.440Z,37.90
2023-04-29T12:54:43.976Z,36.30
2023-04-29T12:57:30.517Z,36.87
2023-04-29T13:00:16.836Z,35.27
2023-04-29T13:03:02.494Z,34.53
2023-04-29T13:05:51.496Z,33.80
2023-04-29T13:08:37.901Z,32.90
2023-04-29T13:11:23.259Z,32.90
2023-04-29T13:14:08.990Z,33.27
2023-04-29T13:16:54.622Z,30.73
2023-04-29T13:19:51.072Z,30.73
2023-04-29T13:22:37.488Z,29.33
2023-04-29T13:25:23.154Z,27.80
2023-04-29T13:28:08.508Z,26.93
2023-04-29T13:30:54.427Z,27.13
2023-04-29T13:33:40.468Z,26.70
2023-04-29T13:36:28.346Z,25.77
2023-04-29T13:39:14.948Z,25.67
2023-04-29T13:42:00.536Z,25.13
2023-04-29T13:45:00.015Z,23.87
2023-04-29T13:48:06.783Z,23.03
2023-04-29T13:51:27.080Z,24.57
2023-04-29T13:54:48.176Z,22.10
2023-04-29T13:57:55.453Z,22.50
2023-04-29T14:00:31.639Z,21.70
2023-04-29T14:03:18.664Z,21.30
2023-04-29T14:06:04.122Z,18.80
2023-04-29T14:08:50.014Z,19.80
2023-04-29T14:11:36.910Z,18.80
2023-04-29T14:14:22.592Z,19.27
2023-04-29T14:17:07.749Z,18.37
2023-04-29T14:19:53.458Z,18.63
2023-04-29T14:22:40.141Z,17.77
2023-04-29T14:25:26.745Z,18.03
2023-04-29T14:28:13.935Z,17.80
2023-04-29T14:30:59.371Z,17.27
2023-04-29T14:33:44.716Z,17.13
2023-04-29T14:36:32.651Z,17.97
2023-04-29T14:39:18.467Z,17.07
2023-04-29T14:42:04.358Z,16.30
2023-04-29T14:44:49.644Z,16.50
2023-04-29T14:47:34.998Z,17.97
2023-04-29T14:50:20.643Z,15.83
2023-04-29T14:53:08.769Z,16.13
2023-04-29T14:55:54.347Z,14.87
2023-04-29T14:58:39.740Z,17.27
2023-04-29T15:01:26.155Z,16.17
2023-04-29T15:04:12.857Z,15.20
2023-04-29T15:07:01.018Z,14.97
2023-04-29T15:09:47.662Z,15.13
2023-04-29T15:12:34.006Z,15.77
2023-04-29T15:15:19.397Z,14.90
2023-04-29T15:18:06.328Z,15.37
2023-04-29T15:20:51.901Z,14.97
2023-04-29T15:23:37.631Z,14.97
2023-04-29T15:26:23.161Z,14.17
2023-04-29T15:29:08.698Z,13.23
2023-04-29T15:31:54.120Z,13.13
2023-04-29T15:34:39.358Z,13.93
2023-04-29T15:37:26.304Z,13.37
2023-04-29T15:40:12.471Z,12.70
2023-04-29T15:42:57.935Z,12.13
2023-04-29T15:45:43.377Z,12.30
2023-04-29T15:48:28.742Z,12.50
2023-04-29T15:51:15.168Z,11.63
2023-04-29T15:54:00.584Z,12.47
2023-04-29T15:56:45.708Z,11.67
2023-04-29T15:59:31.733Z,11.87
2023-04-29T16:02:17.344Z,11.00
2023-04-29T16:05:03.586Z,10.90
2023-04-29T16:07:49.105Z,10.90
2023-04-29T16:10:34.394Z,10.97
2023-04-29T16:13:19.921Z,11.07
2023-04-29T16:16:06.790Z,11.60
2023-04-29T16:18:52.065Z,10.90
2023-04-29T16:21:37.388Z,10.13
2023-04-29T16:24:22.920Z,10.37
2023-04-29T16:27:08.581Z,10.47
2023-04-29T16:29:55.670Z,9.90
2023-04-29T16:32:43.183Z,9.93
2023-04-29T16:35:30.963Z,10.00
2023-04-29T16:38:16.624Z,9.67
2023-04-29T16:41:02.519Z,9.80
2023-04-29T16:43:47.897Z,9.43
2023-04-29T16:46:33.413Z,9.37
2023-04-29T16:49:26.569Z,9.47
2023-04-29T16:52:12.756Z,9.57
2023-04-29T16:55:00.318Z,9.13
2023-04-29T16:57:45.776Z,9.10
2023-04-29T17:00:31.716Z,9.50
2023-04-29T17:03:17.251Z,9.73
2023-04-29T17:06:04.198Z,9.70
2023-04-29T17:08:51.534Z,8.93
2023-04-29T17:11:37.163Z,9.03
2023-04-29T17:14:23.055Z,9.30
2023-04-29T17:17:12.002Z,8.70
2023-04-29T17:19:57.696Z,8.87
2023-04-29T17:22:42.922Z,8.00
2023-04-29T17:25:28.222Z,8.30
2023-04-29T17:28:13.848Z,8.50
2023-04-29T17:31:01.244Z,8.00
2023-04-29T17:33:55.262Z,8.30
2023-04-29T17:36:41.225Z,7.90
2023-04-29T17:39:26.445Z,7.53
2023-04-29T17:42:12.200Z,7.20
2023-04-29T17:44:57.820Z,7.27
2023-04-29T17:47:44.052Z,6.80
2023-04-29T17:50:31.708Z,6.80
2023-04-29T17:53:17.964Z,6.80
2023-04-29T17:56:03.644Z,6.97
2023-04-29T17:58:49.268Z,7.30
2023-04-29T18:01:35.833Z,8.10
2023-04-29T18:04:21.531Z,7.30
2023-04-29T18:07:07.124Z,8.43
2023-04-29T18:09:53.270Z,8.13
2023-04-29T18:12:39.085Z,8.17
2023-04-29T18:15:24.513Z,9.20
2023-04-29T18:18:10.597Z,8.03
2023-04-29T18:20:59.290Z,7.40
2023-04-29T18:23:45.133Z,7.57
2023-04-29T18:26:31.216Z,7.13
2023-04-29T18:29:17.037Z,7.40
2023-04-29T18:32:02.410Z,7.57
2023-04-29T18:34:48.406Z,7.10
2023-04-29T18:37:33.913Z,7.27
2023-04-29T18:40:20.661Z,6.97
2023-04-29T18:43:06.267Z,7.33
2023-04-29T18:45:52.129Z,7.17
2023-04-29T18:48:39.019Z,6.97
2023-04-29T18:51:25.121Z,6.57
2023-04-29T18:54:11.226Z,6.77
2023-04-29T18:56:56.717Z,6.90
2023-04-29T18:59:42.637Z,6.73
2023-04-29T19:02:28.600Z,6.33
2023-04-29T19:05:14.413Z,6.53
2023-04-29T19:07:59.969Z,6.23
2023-04-29T19:10:46.595Z,6.20
2023-04-29T19:13:32.240Z,5.90
2023-04-29T19:16:18.119Z,6.13
2023-04-29T19:19:04.321Z,6.43
2023-04-29T19:21:49.879Z,7.60
2023-04-29T19:24:37.110Z,6.87
2023-04-29T19:27:23.339Z,6.53
2023-04-29T19:30:09.423Z,6.60
2023-04-29T19:32:55.686Z,6.53
2023-04-29T19:35:41.404Z,6.20
2023-04-29T19:38:26.958Z,6.23
2023-04-29T19:41:12.795Z,6.20
2023-04-29T19:43:58.099Z,6.33
2023-04-29T19:46:43.634Z,5.67
2023-04-29T19:49:29.262Z,6.37
2023-04-29T19:52:14.680Z,6.10
2023-04-29T19:55:00.099Z,6.13
2023-04-29T19:57:45.599Z,6.03
2023-04-29T20:00:31.499Z,6.20
2023-04-29T20:03:17.144Z,5.97
2023-04-29T20:06:02.525Z,5.93
2023-04-29T20:08:48.405Z,5.80
2023-04-29T20:11:33.713Z,5.30
2023-04-29T20:14:19.482Z,6.10
2023-04-29T20:17:05.014Z,5.57
2023-04-29T20:19:50.535Z,5.63
2023-04-29T20:22:36.660Z,5.60
2023-04-29T20:25:22.011Z,5.37
2023-04-29T20:28:08.992Z,5.23
2023-04-29T20:30:54.315Z,5.23
2023-04-29T20:33:39.423Z,5.20
2023-04-29T20:36:24.711Z,5.67
2023-04-29T20:39:10.872Z,5.67
2023-04-29T20:41:57.199Z,5.70
2023-04-29T20:44:43.250Z,5.60
2023-04-29T20:47:29.022Z,5.50
2023-04-29T20:50:14.392Z,5.87
2023-04-29T20:53:00.631Z,5.30
2023-04-29T20:55:46.660Z,5.30
2023-04-29T20:58:32.305Z,5.53
2023-04-29T21:01:19.504Z,5.40
2023-04-29T21:04:06.085Z,5.50
2023-04-29T21:06:52.723Z,5.13
2023-04-29T21:09:38.605Z,5.13
2023-04-29T21:12:24.873Z,5.13
2023-04-29T21:15:11.348Z,5.13
2023-04-29T21:17:56.902Z,5.00
2023-04-29T21:20:42.347Z,5.00
2023-04-29T21:23:27.856Z,5.20
2023-04-29T21:26:15.001Z,4.43
2023-04-29T21:29:01.169Z,5.00
2023-04-29T21:31:47.205Z,4.30
2023-04-29T21:34:32.792Z,4.90
2023-04-29T21:37:18.402Z,5.00
2023-04-29T21:40:04.864Z,4.97
2023-04-29T21:42:51.097Z,4.83
2023-04-29T21:45:36.575Z,4.43
2023-04-29T21:48:21.982Z,5.07
2023-04-29T21:51:08.794Z,5.03
2023-04-29T21:53:54.541Z,4.40
2023-04-29T21:56:39.756Z,4.70
2023-04-29T21:59:25.509Z,4.20
2023-04-29T22:02:23.000Z,4.83
2023-04-29T22:05:08.837Z,4.50
2023-04-29T22:07:54.881Z,4.40
2023-04-29T22:10:41.591Z,4.33
2023-04-29T22:13:26.859Z,5.07
2023-04-29T22:16:12.353Z,4.67
2023-04-29T22:18:58.039Z,4.53
2023-04-29T22:21:43.384Z,4.70
2023-04-29T22:24:28.682Z,4.67
2023-04-29T22:27:13.934Z,4.50
2023-04-29T22:29:59.436Z,4.47
2023-04-29T22:32:44.876Z,4.33
2023-04-29T22:35:30.307Z,4.47
2023-04-29T22:38:16.328Z,4.63
2023-04-29T22:41:01.841Z,4.27
2023-04-29T22:43:47.217Z,4.20
2023-04-29T22:46:33.532Z,4.40
2023-04-29T22:49:19.098Z,4.33
2023-04-29T22:52:04.749Z,4.03
2023-04-29T22:54:50.629Z,4.50
2023-04-29T22:57:36.133Z,4.50
2023-04-29T23:00:22.144Z,4.27
2023-04-29T23:03:07.386Z,3.97
2023-04-29T23:05:57.825Z,4.10
2023-04-29T23:08:44.663Z,3.77
2023-04-29T23:11:31.220Z,4.10
2023-04-29T23:14:16.907Z,4.10
2023-04-29T23:17:02.218Z,3.97
2023-04-29T23:19:47.672Z,3.87
2023-04-29T23:22:33.065Z,3.80
2023-04-29T23:25:18.374Z,3.73
2023-04-29T23:28:03.716Z,4.20
2023-04-29T23:30:49.258Z,3.97
2023-04-29T23:33:34.470Z,4.03
2023-04-29T23:36:19.610Z,3.63
2023-04-29T23:39:05.386Z,4.10
2023-04-29T23:41:51.465Z,3.77
2023-04-29T23:44:39.255Z,3.90
2023-04-29T23:47:24.834Z,3.70
2023-04-29T23:50:10.465Z,3.47
2023-04-29T23:52:56.133Z,3.90
2023-04-29T23:55:41.643Z,4.20
2023-04-29T23:58:27.963Z,3.80
